Terminal Aerodrome Forecast
Issued by NWS El Paso, TX

Home | Current Version | Previous Version | Text Only | Print | Product List | Glossary On
Versions: 1 2 3 4 5 6 7 8 9 10 11 12 13 14
074
FTUS44 KEPZ 231740
TAFELP
TAF
KELP 231740Z 2318/2418 02010G17KT P6SM FEW140 SCT250
     FM240200 06018G28KT P6SM SCT070 SCT120 BKN200
      TEMPO 2403/2406 05020G32KT 4SM BLDU
     FM240900 04018G28KT P6SM VCSH SCT050 BKN080 BKN150
     FM241600 09012G22KT P6SM VCTS SCT050CB BKN080 BKN120=

USA.gov is the U.S. government's official web portal to all federal, state and local government web resources and services.